Time;durP1;ratioP1;P1;durP2;ratioP2;P2;SDS_P1;SDS_P2;PMS_P1;PMS_P2;Temp;Humidity;BMP_temperature;BMP_pressure;BME280_temperature;BME280_humidity;BME280_pressure;Samples;Min_cycle;Max_cycle;Signal;HPM_P1;HPM_P2
2022/03/31 00:00:51;;;;;;;24.90;19.80;;;;;;;2.97;100.00;94699.44;5023649;28;20448;-77
2022/03/31 00:03:20;;;;;;;24.43;18.47;;;;;;;3.23;100.00;94725.38;5015501;28;20550;-77
2022/03/31 00:05:48;;;;;;;23.10;19.50;;;;;;;3.23;100.00;94728.75;5031203;28;20464;-77
2022/03/31 00:08:18;;;;;;;22.43;17.83;;;;;;;3.24;100.00;94713.84;5026741;28;20539;-77
2022/03/31 00:10:50;;;;;;;25.60;20.20;;;;;;;3.32;100.00;94717.44;5014642;28;20449;-78
2022/03/31 00:13:19;;;;;;;24.27;18.50;;;;;;;2.77;100.00;94632.34;5011809;28;20445;-77
2022/03/31 00:15:46;;;;;;;23.70;18.63;;;;;;;3.04;100.00;94670.97;5012885;28;21001;-77
2022/03/31 00:18:14;;;;;;;22.70;18.63;;;;;;;3.34;100.00;94723.13;5018961;28;20435;-77
2022/03/31 00:20:41;;;;;;;22.03;18.33;;;;;;;2.89;100.00;94667.09;5032180;28;20466;-77
2022/03/31 00:23:08;;;;;;;22.63;18.67;;;;;;;3.27;100.00;94713.19;5025397;28;20498;-77
2022/03/31 00:25:35;;;;;;;25.20;18.33;;;;;;;3.20;100.00;94712.94;5011869;28;20687;-78
2022/03/31 00:28:03;;;;;;;29.37;20.67;;;;;;;3.14;100.00;94709.00;5018911;28;20502;-77
2022/03/31 00:30:31;;;;;;;27.73;19.47;;;;;;;3.11;100.00;94702.56;5018633;28;20868;-76
2022/03/31 00:32:59;;;;;;;24.97;21.10;;;;;;;2.95;100.00;94689.31;5011638;28;20809;-77
2022/03/31 00:35:27;;;;;;;28.00;21.07;;;;;;;3.10;100.00;94689.84;5012590;28;20562;-78
2022/03/31 00:37:54;;;;;;;28.57;22.07;;;;;;;3.10;100.00;94697.66;5024072;28;20428;-76
2022/03/31 00:40:21;;;;;;;29.60;21.97;;;;;;;3.10;100.00;94700.28;5024733;28;20438;-77
2022/03/31 00:42:54;;;;;;;32.37;21.67;;;;;;;3.00;100.00;94677.16;5021210;28;20517;-78
2022/03/31 00:45:26;;;;;;;31.50;22.33;;;;;;;3.09;100.00;94704.72;5014688;28;20496;-77
2022/03/31 00:47:54;;;;;;;31.63;21.90;;;;;;;3.12;100.00;94693.66;5011132;28;20439;-78
2022/03/31 00:50:26;;;;;;;27.10;20.97;;;;;;;3.05;100.00;94695.22;5027200;28;20516;-78
2022/03/31 00:52:54;;;;;;;29.93;23.70;;;;;;;2.87;100.00;94656.22;5022047;28;20816;-77
2022/03/31 00:55:41;;;;;;;34.60;22.80;;;;;;;3.06;100.00;94683.69;5006156;28;20485;-78
2022/03/31 00:58:08;;;;;;;35.17;24.80;;;;;;;2.76;100.00;94638.63;5016590;28;20558;-77
2022/03/31 01:00:36;;;;;;;36.37;24.30;;;;;;;2.96;100.00;94664.75;5021790;28;20428;-77
2022/03/31 01:03:03;;;;;;;30.40;22.80;;;;;;;3.12;100.00;94678.00;5024675;28;20427;-77
2022/03/31 01:05:30;;;;;;;36.23;22.70;;;;;;;3.08;100.00;94692.00;5019020;28;20451;-77
2022/03/31 01:07:57;;;;;;;31.10;22.53;;;;;;;2.95;100.00;94654.63;5018021;28;20476;-77
2022/03/31 01:10:24;;;;;;;31.27;22.10;;;;;;;2.75;100.00;94619.59;5021068;28;20525;-76
2022/03/31 01:12:50;;;;;;;31.50;25.43;;;;;;;3.17;100.00;94669.19;5024641;28;20535;-76
2022/03/31 01:15:19;;;;;;;35.63;24.33;;;;;;;3.29;100.00;94678.94;5042428;28;20979;-77
2022/03/31 01:17:48;;;;;;;34.00;22.60;;;;;;;3.23;100.00;94681.75;5025360;28;20949;-76
2022/03/31 01:20:21;;;;;;;34.10;25.90;;;;;;;3.13;100.00;94665.69;5021530;28;20424;-77
2022/03/31 01:22:50;;;;;;;37.57;24.13;;;;;;;3.06;100.00;94666.19;5039719;28;20437;-78
2022/03/31 01:25:17;;;;;;;34.83;23.37;;;;;;;2.96;100.00;94659.53;5017222;28;20813;-77
2022/03/31 01:27:45;;;;;;;33.40;24.77;;;;;;;3.10;100.00;94666.34;5007572;28;20438;-77
2022/03/31 01:30:14;;;;;;;36.93;25.07;;;;;;;3.02;100.00;94664.53;5015970;28;20435;-77
2022/03/31 01:32:44;;;;;;;34.93;25.83;;;;;;;3.04;100.00;94657.91;5020468;28;20445;-77
2022/03/31 01:35:12;;;;;;;35.80;24.73;;;;;;;3.15;100.00;94651.22;5033287;28;20472;-76
2022/03/31 01:37:38;;;;;;;33.50;25.17;;;;;;;3.09;100.00;94649.91;5043328;28;20526;-77
2022/03/31 01:40:06;;;;;;;32.97;23.50;;;;;;;2.87;100.00;94598.03;5026872;28;20475;-77
2022/03/31 01:42:34;;;;;;;41.20;26.30;;;;;;;3.09;100.00;94636.84;5007672;28;20475;-77
2022/03/31 01:45:01;;;;;;;41.80;26.90;;;;;;;2.85;100.00;94608.78;5019929;28;20444;-77
2022/03/31 01:47:27;;;;;;;41.50;28.10;;;;;;;2.71;100.00;94595.25;5033184;28;20490;-76
2022/03/31 01:49:54;;;;;;;38.93;27.63;;;;;;;2.69;100.00;94592.19;5020006;28;20499;-77
2022/03/31 01:52:22;;;;;;;40.17;27.23;;;;;;;2.92;100.00;94631.75;5025408;28;20809;-77
2022/03/31 01:54:49;;;;;;;44.77;30.23;;;;;;;2.99;100.00;94636.47;5027762;28;20431;-77
2022/03/31 01:57:16;;;;;;;42.30;27.23;;;;;;;2.96;100.00;94640.50;5037417;28;20500;-76
2022/03/31 01:59:43;;;;;;;41.30;27.17;;;;;;;2.81;100.00;94604.53;5019670;28;20977;-76
2022/03/31 02:02:12;;;;;;;36.30;26.17;;;;;;;2.95;100.00;94618.09;5024980;28;20472;-77
2022/03/31 02:04:40;;;;;;;41.23;27.30;;;;;;;3.01;100.00;94629.84;5026183;28;20963;-77
2022/03/31 02:07:08;;;;;;;34.83;23.90;;;;;;;3.00;100.00;94627.56;5021904;28;20517;-77
2022/03/31 02:09:35;;;;;;;42.50;28.37;;;;;;;3.09;100.00;94630.88;5019318;28;20446;-77
2022/03/31 02:12:03;;;;;;;33.70;24.90;;;;;;;2.94;100.00;94577.41;5023621;28;20630;-77
2022/03/31 02:14:30;;;;;;;37.30;27.50;;;;;;;2.93;100.00;94601.97;5026185;28;20490;-77
2022/03/31 02:16:56;;;;;;;41.73;28.07;;;;;;;2.93;100.00;94596.75;5022172;28;20464;-77
2022/03/31 02:19:24;;;;;;;36.77;26.97;;;;;;;2.85;100.00;94598.34;5019309;28;20471;-76
2022/03/31 02:21:52;;;;;;;44.60;32.13;;;;;;;2.97;100.00;94615.91;5023089;28;20476;-77
2022/03/31 02:24:18;;;;;;;40.87;28.37;;;;;;;3.03;100.00;94621.69;5027387;28;20432;-77
2022/03/31 02:26:47;;;;;;;41.50;28.60;;;;;;;3.05;100.00;94622.91;5022974;28;20942;-77
2022/03/31 02:29:14;;;;;;;46.10;30.27;;;;;;;3.06;100.00;94618.44;5018922;28;20442;-77
2022/03/31 02:31:41;;;;;;;43.33;28.40;;;;;;;3.15;100.00;94611.31;5022084;28;20520;-77
2022/03/31 02:34:08;;;;;;;40.30;26.90;;;;;;;2.85;100.00;94582.69;5029463;28;20475;-77
2022/03/31 02:36:35;;;;;;;39.77;27.80;;;;;;;2.82;100.00;94570.31;5004330;28;20568;-77
2022/03/31 02:39:01;;;;;;;41.80;28.27;;;;;;;3.09;100.00;94610.75;5007834;28;20946;-76
2022/03/31 02:41:28;;;;;;;40.50;27.50;;;;;;;2.89;100.00;94596.63;5015566;28;20439;-77
2022/03/31 02:43:55;;;;;;;45.70;29.33;;;;;;;2.82;100.00;94585.97;5019061;28;20545;-77
2022/03/31 02:46:21;;;;;;;35.30;25.37;;;;;;;2.96;100.00;94586.44;5020408;28;20453;-77
2022/03/31 02:48:53;;;;;;;36.23;26.60;;;;;;;2.81;100.00;94573.22;5028500;28;20437;-77
2022/03/31 02:51:20;;;;;;;42.77;28.03;;;;;;;2.81;100.00;94558.34;5024603;28;20443;-77
2022/03/31 02:56:32;;;;;;;36.20;25.07;;;;;;;3.01;100.00;94584.72;5019844;28;20587;-77
2022/03/31 02:58:59;;;;;;;37.20;26.87;;;;;;;2.74;100.00;94539.81;5023410;28;20487;-77
2022/03/31 03:01:27;;;;;;;40.03;28.07;;;;;;;3.16;100.00;94581.50;5030803;28;20850;-76
2022/03/31 03:03:55;;;;;;;36.70;25.23;;;;;;;2.99;100.00;94572.00;5022814;28;20452;-77
2022/03/31 03:06:22;;;;;;;36.03;26.13;;;;;;;2.88;100.00;94555.97;5025224;28;20892;-76
2022/03/31 03:08:48;;;;;;;40.57;27.17;;;;;;;3.06;100.00;94579.28;5012090;28;20449;-77
2022/03/31 03:11:17;;;;;;;38.27;30.17;;;;;;;2.92;100.00;94554.22;5009052;28;20885;-77
2022/03/31 03:13:45;;;;;;;41.67;29.03;;;;;;;2.93;100.00;94563.59;5022741;28;21002;-78
2022/03/31 03:16:11;;;;;;;44.80;30.30;;;;;;;3.00;100.00;94573.50;5018541;28;20849;-77
2022/03/31 03:18:39;;;;;;;40.63;28.70;;;;;;;2.89;100.00;94567.91;5021679;28;20494;-77
2022/03/31 03:21:07;;;;;;;42.97;27.00;;;;;;;2.89;100.00;94561.94;5031288;28;20432;-76
2022/03/31 03:23:35;;;;;;;41.73;25.47;;;;;;;2.92;100.00;94567.28;5022477;28;20453;-77
2022/03/31 03:26:02;;;;;;;42.80;28.20;;;;;;;2.86;100.00;94554.75;5024811;28;20449;-77
2022/03/31 03:28:30;;;;;;;46.30;30.53;;;;;;;2.81;100.00;94537.47;5011788;28;20531;-78
2022/03/31 03:30:57;;;;;;;44.13;30.33;;;;;;;2.90;100.00;94555.63;5026644;28;20548;-77
2022/03/31 03:33:24;;;;;;;46.30;32.00;;;;;;;2.81;100.00;94549.75;5015370;28;20562;-77
2022/03/31 03:35:51;;;;;;;42.77;30.10;;;;;;;2.37;100.00;94482.25;5012399;28;20468;-77
2022/03/31 03:38:18;;;;;;;37.80;27.93;;;;;;;2.62;100.00;94519.66;5011359;28;20460;-77
2022/03/31 03:40:45;;;;;;;43.27;29.83;;;;;;;2.78;100.00;94539.94;5024513;28;20445;-77
2022/03/31 03:43:12;;;;;;;42.43;28.87;;;;;;;2.69;100.00;94526.22;5023854;28;20527;-76
2022/03/31 03:45:38;;;;;;;41.90;26.67;;;;;;;2.76;100.00;94542.88;5017467;28;20525;-77
2022/03/31 03:48:07;;;;;;;42.53;27.87;;;;;;;2.82;100.00;94533.00;5017581;28;20441;-77
2022/03/31 03:50:34;;;;;;;43.30;30.00;;;;;;;2.95;100.00;94558.81;5011273;28;20446;-77
2022/03/31 03:53:04;;;;;;;50.20;32.47;;;;;;;2.63;100.00;94518.56;5024263;28;20939;-76
2022/03/31 03:55:32;;;;;;;44.67;29.90;;;;;;;2.67;100.00;94526.50;5023600;28;20483;-77
2022/03/31 03:58:00;;;;;;;40.03;28.23;;;;;;;2.65;100.00;94524.22;5040609;28;20443;-77
2022/03/31 04:00:27;;;;;;;42.57;28.87;;;;;;;2.75;100.00;94535.34;5027221;28;20507;-77
2022/03/31 04:02:54;;;;;;;39.87;26.20;;;;;;;2.76;100.00;94539.50;5012220;28;20441;-77
2022/03/31 04:05:22;;;;;;;41.07;27.17;;;;;;;2.81;100.00;94547.13;5023985;28;20492;-77
2022/03/31 04:07:48;;;;;;;41.97;27.50;;;;;;;2.62;100.00;94524.09;5040429;28;20500;-77
2022/03/31 04:10:15;;;;;;;38.57;26.47;;;;;;;2.55;100.00;94519.41;5019976;28;20444;-77
2022/03/31 04:12:42;;;;;;;43.33;29.57;;;;;;;2.69;100.00;94537.41;5016866;28;20428;-77
2022/03/31 04:15:09;;;;;;;45.27;30.43;;;;;;;2.79;100.00;94537.00;5020909;28;20469;-77
2022/03/31 04:17:36;;;;;;;39.23;26.10;;;;;;;2.68;100.00;94517.63;5024234;28;20539;-77
2022/03/31 04:20:04;;;;;;;46.27;27.73;;;;;;;2.73;100.00;94530.47;5051747;28;20946;-77
2022/03/31 04:22:33;;;;;;;37.67;26.30;;;;;;;2.47;100.00;94499.38;5016658;28;20568;-77
2022/03/31 04:25:01;;;;;;;42.70;28.30;;;;;;;2.69;100.00;94532.19;5021197;28;20486;-77
2022/03/31 04:27:29;;;;;;;38.70;27.23;;;;;;;2.48;100.00;94497.53;5024421;28;20432;-77
2022/03/31 04:29:56;;;;;;;47.37;30.43;;;;;;;2.81;100.00;94534.84;5032885;28;20496;-77
2022/03/31 04:32:23;;;;;;;42.70;27.80;;;;;;;2.45;100.00;94478.06;5010653;28;20434;-76
2022/03/31 04:34:49;;;;;;;39.60;27.33;;;;;;;2.64;100.00;94516.72;5018909;28;20499;-77
2022/03/31 04:37:16;;;;;;;43.63;30.87;;;;;;;2.85;100.00;94538.34;5024162;28;20504;-78
2022/03/31 04:39:43;;;;;;;44.00;28.70;;;;;;;2.80;100.00;94538.53;5014609;28;20436;-78
2022/03/31 04:42:10;;;;;;;44.80;28.70;;;;;;;2.67;100.00;94516.88;5032521;28;20513;-78
2022/03/31 04:44:38;;;;;;;43.33;30.07;;;;;;;2.57;100.00;94503.44;5031497;28;20456;-78
2022/03/31 04:47:06;;;;;;;40.07;27.70;;;;;;;2.84;100.00;94543.88;5026974;28;20483;-78
2022/03/31 04:49:34;;;;;;;38.83;26.93;;;;;;;2.70;100.00;94528.50;5004707;28;20436;-77
2022/03/31 04:52:01;;;;;;;40.20;28.03;;;;;;;2.69;100.00;94528.81;5036667;28;20412;-77
2022/03/31 04:54:27;;;;;;;43.50;29.10;;;;;;;2.45;100.00;94493.72;5052336;28;20933;-77
2022/03/31 04:56:54;;;;;;;43.47;28.37;;;;;;;2.66;100.00;94519.78;5046383;28;20507;-77
2022/03/31 04:59:21;;;;;;;38.33;26.20;;;;;;;2.69;100.00;94515.78;5034998;28;20553;-77
2022/03/31 05:01:48;;;;;;;39.37;27.10;;;;;;;2.50;100.00;94490.16;5026484;28;20484;-77
2022/03/31 05:04:16;;;;;;;39.07;27.60;;;;;;;2.65;100.00;94520.84;5010085;28;20909;-77
2022/03/31 05:06:43;;;;;;;40.93;27.13;;;;;;;2.71;100.00;94527.41;5026590;28;21048;-77
2022/03/31 05:09:10;;;;;;;38.53;24.53;;;;;;;2.56;100.00;94499.31;5025019;28;20640;-76
2022/03/31 05:11:36;;;;;;;33.53;25.40;;;;;;;2.48;100.00;94497.53;4994531;28;1093711;-76
2022/03/31 05:14:03;;;;;;;42.73;27.10;;;;;;;2.59;100.00;94520.28;5017986;28;20464;-76
2022/03/31 05:16:29;;;;;;;39.83;25.60;;;;;;;2.64;100.00;94532.38;5016226;28;20475;-76
2022/03/31 05:18:56;;;;;;;39.43;26.10;;;;;;;2.47;100.00;94491.56;5030907;28;20434;-76
2022/03/31 05:21:23;;;;;;;36.53;23.17;;;;;;;2.79;100.00;94528.41;5029691;28;20509;-76
2022/03/31 05:23:49;;;;;;;39.70;24.20;;;;;;;2.49;100.00;94483.41;5029603;28;20444;-76
2022/03/31 05:26:16;;;;;;;32.70;22.30;;;;;;;2.81;100.00;94536.69;5030904;28;20458;-76
2022/03/31 05:28:43;;;;;;;40.33;24.73;;;;;;;2.76;100.00;94510.78;5029680;28;20449;-76
2022/03/31 05:31:09;;;;;;;33.90;22.73;;;;;;;2.72;100.00;94515.91;5029625;28;20519;-76
2022/03/31 05:33:36;;;;;;;35.27;23.63;;;;;;;2.81;100.00;94532.25;5029102;28;20431;-77
2022/03/31 05:36:04;;;;;;;34.20;24.67;;;;;;;2.68;100.00;94509.81;5049761;28;20934;-76
2022/03/31 05:38:30;;;;;;;34.43;23.30;;;;;;;2.75;100.00;94520.47;5029449;28;21005;-76
2022/03/31 05:40:57;;;;;;;34.60;24.07;;;;;;;2.74;100.00;94521.56;5030834;28;20518;-76
2022/03/31 05:43:24;;;;;;;35.93;24.33;;;;;;;2.76;100.00;94516.00;5029562;28;20518;-73
2022/03/31 05:45:51;;;;;;;40.77;24.63;;;;;;;2.55;100.00;94487.34;5029345;28;20464;-73
2022/03/31 05:48:17;;;;;;;33.23;22.40;;;;;;;2.73;100.00;94499.16;5029372;28;20448;-73
2022/03/31 05:50:44;;;;;;;34.57;22.13;;;;;;;2.79;100.00;94504.94;5029571;28;20506;-74
2022/03/31 05:53:13;;;;;;;33.80;22.63;;;;;;;2.61;100.00;94497.25;5014859;28;20452;-73
2022/03/31 05:55:45;;;;;;;34.00;23.53;;;;;;;2.81;100.00;94524.41;5017570;28;20890;-74
2022/03/31 05:58:11;;;;;;;36.20;24.67;;;;;;;2.90;100.00;94534.75;5030626;28;20462;-74
2022/03/31 06:00:39;;;;;;;36.77;23.60;;;;;;;2.88;100.00;94526.50;5029373;28;20583;-74
2022/03/31 06:03:06;;;;;;;38.23;25.77;;;;;;;2.56;100.00;94484.44;5029055;28;20979;-73
2022/03/31 06:05:33;;;;;;;37.40;25.90;;;;;;;2.86;100.00;94526.81;5029159;28;20992;-73
2022/03/31 06:08:00;;;;;;;38.23;26.13;;;;;;;2.86;100.00;94519.00;5046042;28;20990;-73
2022/03/31 06:10:27;;;;;;;37.30;25.57;;;;;;;2.65;100.00;94487.72;5029315;28;20484;-73
2022/03/31 06:12:54;;;;;;;43.67;27.20;;;;;;;2.75;100.00;94501.44;5032713;28;20956;-73
2022/03/31 06:15:21;;;;;;;41.10;23.30;;;;;;;2.97;100.00;94525.34;5032570;28;20979;-74
2022/03/31 06:17:48;;;;;;;36.47;23.73;;;;;;;2.87;100.00;94504.84;5032488;28;20562;-73
2022/03/31 06:20:15;;;;;;;36.50;25.40;;;;;;;3.03;100.00;94527.72;5032508;28;20444;-73
2022/03/31 06:22:41;;;;;;;37.13;24.20;;;;;;;2.88;100.00;94506.38;5020579;28;20989;-73
2022/03/31 06:25:12;;;;;;;32.90;22.93;;;;;;;3.02;100.00;94536.66;5032339;28;20475;-73
2022/03/31 06:27:39;;;;;;;38.83;24.37;;;;;;;3.05;100.00;94538.59;5032474;28;20478;-73
2022/03/31 06:30:06;;;;;;;37.80;25.03;;;;;;;2.91;100.00;94541.50;5033831;28;20466;-74
2022/03/31 06:32:33;;;;;;;35.13;23.20;;;;;;;2.86;100.00;94526.06;5033834;28;20994;-73
2022/03/31 06:35:01;;;;;;;33.73;24.03;;;;;;;2.87;100.00;94528.34;5022551;28;20444;-73
2022/03/31 06:37:28;;;;;;;36.00;24.40;;;;;;;2.98;100.00;94539.16;5040450;28;21359;-73
2022/03/31 06:39:55;;;;;;;34.93;24.57;;;;;;;2.91;100.00;94537.03;5017212;28;20497;-73
2022/03/31 06:42:22;;;;;;;34.93;24.30;;;;;;;2.77;100.00;94502.63;5032272;28;20434;-74
2022/03/31 06:44:55;;;;;;;34.70;24.87;;;;;;;2.75;100.00;94496.22;5032454;28;20454;-74
2022/03/31 06:47:43;;;;;;;33.80;24.03;;;;;;;2.78;100.00;94501.56;5012524;28;20424;-74
2022/03/31 06:50:11;;;;;;;32.07;21.63;;;;;;;2.93;100.00;94524.44;5032144;28;20968;-74
2022/03/31 06:52:37;;;;;;;38.40;25.17;;;;;;;2.85;100.00;94514.09;5033769;28;20424;-75
2022/03/31 06:55:05;;;;;;;36.43;24.30;;;;;;;3.14;100.00;94544.53;5019002;28;21193;-75
2022/03/31 06:57:31;;;;;;;36.07;22.93;;;;;;;3.22;100.00;94535.84;5021867;28;20548;-74
2022/03/31 06:59:58;;;;;;;31.97;22.70;;;;;;;3.09;100.00;94519.38;5015704;28;20530;-73
2022/03/31 07:02:25;;;;;;;35.33;26.47;;;;;;;3.12;100.00;94512.75;5031761;28;20486;-73
2022/03/31 07:04:52;;;;;;;34.83;22.20;;;;;;;3.15;100.00;94510.25;5027732;28;20546;-75
2022/03/31 07:07:19;;;;;;;40.60;26.87;;;;;;;3.15;100.00;94512.88;5006416;28;20490;-76
2022/03/31 07:09:45;;;;;;;35.70;24.00;;;;;;;3.10;100.00;94512.31;5032952;28;20516;-76
2022/03/31 07:12:12;;;;;;;37.17;23.60;;;;;;;3.21;100.00;94536.94;5031910;28;20428;-76
2022/03/31 07:14:39;;;;;;;31.63;22.83;;;;;;;2.57;100.00;94448.69;5031539;28;20531;-76
2022/03/31 07:17:06;;;;;;;35.47;24.23;;;;;;;3.08;100.00;94523.09;5031383;28;20537;-76
2022/03/31 07:19:32;;;;;;;35.77;23.17;;;;;;;3.24;100.00;94539.66;5031430;28;20812;-76
2022/03/31 07:21:59;;;;;;;38.30;24.47;;;;;;;3.36;100.00;94535.53;5032124;28;21207;-76
2022/03/31 07:24:26;;;;;;;38.33;22.73;;;;;;;2.66;100.00;94442.28;5031291;28;20443;-76
2022/03/31 07:26:52;;;;;;;36.20;23.40;;;;;;;3.13;100.00;94517.66;5031397;28;20498;-76
2022/03/31 07:29:19;;;;;;;33.97;22.90;;;;;;;2.83;100.00;94483.09;5031374;28;20454;-76
2022/03/31 07:31:46;;;;;;;37.30;25.90;;;;;;;3.20;100.00;94525.69;5032613;28;20442;-77
2022/03/31 07:34:13;;;;;;;38.90;22.17;;;;;;;3.16;100.00;94517.00;5026003;28;20527;-76
2022/03/31 07:36:39;;;;;;;36.97;24.83;;;;;;;3.28;100.00;94524.09;5056615;28;20919;-77
2022/03/31 07:39:08;;;;;;;35.50;23.87;;;;;;;3.02;100.00;94487.81;5026164;28;20439;-77
2022/03/31 07:41:35;;;;;;;33.40;22.60;;;;;;;3.24;100.00;94515.41;5028321;28;21002;-77
2022/03/31 07:44:01;;;;;;;34.53;22.80;;;;;;;3.24;100.00;94508.31;5011595;28;20468;-77
2022/03/31 07:46:32;;;;;;;34.73;23.90;;;;;;;3.11;100.00;94500.78;5025418;28;20567;-77
2022/03/31 07:48:59;;;;;;;30.73;21.17;;;;;;;3.33;100.00;94515.28;5048400;28;20555;-77
2022/03/31 07:51:26;;;;;;;35.13;23.43;;;;;;;3.42;100.00;94521.19;5032781;28;20447;-77
2022/03/31 07:53:53;;;;;;;34.50;22.70;;;;;;;3.32;100.00;94498.84;5065202;28;20452;-77
2022/03/31 07:56:20;;;;;;;27.90;20.97;;;;;;;3.46;100.00;94520.19;5031799;28;20476;-77
2022/03/31 07:58:46;;;;;;;28.60;21.00;;;;;;;3.25;100.00;94490.81;5012142;28;20484;-77
2022/03/31 08:01:13;;;;;;;28.47;19.87;;;;;;;3.54;100.00;94518.59;5014003;28;20433;-77
2022/03/31 08:03:40;;;;;;;31.17;20.93;;;;;;;3.38;100.00;94502.78;5000231;28;20437;-77
2022/03/31 08:06:08;;;;;;;30.43;20.87;;;;;;;3.44;100.00;94508.56;5013360;28;20483;-77
2022/03/31 08:08:35;;;;;;;29.30;18.57;;;;;;;3.50;100.00;94505.41;5025552;28;20450;-78
2022/03/31 08:11:01;;;;;;;34.23;20.70;;;;;;;3.35;100.00;94500.06;5015686;28;20883;-77
2022/03/31 08:13:28;;;;;;;27.80;19.67;;;;;;;3.35;100.00;94482.56;5004745;28;20816;-77
2022/03/31 08:15:57;;;;;;;25.93;18.40;;;;;;;3.37;100.00;94480.38;5033752;28;20877;-77
2022/03/31 08:18:32;;;;;;;24.30;17.47;;;;;;;3.21;100.00;94458.59;5013520;28;20567;-78
2022/03/31 08:20:59;;;;;;;26.17;17.57;;;;;;;3.43;100.00;94484.28;5028811;28;20471;-77
2022/03/31 08:23:26;;;;;;;24.40;17.23;;;;;;;3.59;100.00;94512.38;5030834;28;20427;-77
2022/03/31 08:25:54;;;;;;;25.77;15.60;;;;;;;3.55;100.00;94515.66;5033937;28;20495;-78
2022/03/31 08:28:21;;;;;;;27.13;18.60;;;;;;;3.45;100.00;94502.25;5032491;28;20479;-77
2022/03/31 08:30:48;;;;;;;29.37;17.20;;;;;;;3.38;100.00;94486.38;5019902;28;20451;-77
2022/03/31 08:33:15;;;;;;;25.10;17.60;;;;;;;3.46;100.00;94501.16;5032979;28;20549;-78
2022/03/31 08:35:44;;;;;;;21.63;15.37;;;;;;;3.48;100.00;94530.34;5018463;28;20518;-77
2022/03/31 08:38:11;;;;;;;22.10;14.30;;;;;;;3.26;100.00;94484.50;5032139;28;21078;-77
2022/03/31 08:40:45;;;;;;;22.60;16.97;;;;;;;3.48;100.00;94509.44;5048981;28;20988;-77
2022/03/31 08:43:11;;;;;;;19.53;14.27;;;;;;;3.41;100.00;94498.75;5021995;28;20469;-78
2022/03/31 08:45:40;;;;;;;22.43;13.80;;;;;;;3.25;100.00;94488.97;5029585;28;20501;-78
2022/03/31 08:48:08;;;;;;;19.60;14.53;;;;;;;3.50;100.00;94528.16;5025245;28;20436;-78
2022/03/31 08:50:35;;;;;;;21.40;16.33;;;;;;;3.63;100.00;94519.25;5014052;28;20444;-77
2022/03/31 08:53:02;;;;;;;24.93;19.20;;;;;;;3.50;100.00;94515.09;5046169;28;20925;-77
2022/03/31 08:55:29;;;;;;;21.70;16.43;;;;;;;3.58;100.00;94505.63;5013621;28;21111;-77
2022/03/31 08:57:56;;;;;;;20.40;14.00;;;;;;;3.29;100.00;94459.56;5027113;28;20502;-78
2022/03/31 09:00:24;;;;;;;18.43;12.70;;;;;;;3.63;100.00;94519.25;5033344;28;20476;-78
2022/03/31 09:02:52;;;;;;;14.50;10.53;;;;;;;3.25;100.00;94475.91;5031931;28;20919;-77
2022/03/31 09:05:19;;;;;;;14.40;10.83;;;;;;;3.07;100.00;94450.28;5020245;28;20458;-77
2022/03/31 09:08:00;;;;;;;15.30;11.60;;;;;;;3.66;100.00;94513.38;5032234;28;20458;-77
2022/03/31 09:10:31;;;;;;;17.57;13.30;;;;;;;3.75;100.00;94508.81;5055875;28;20459;-77
2022/03/31 09:13:00;;;;;;;14.83;12.50;;;;;;;3.60;100.00;94524.34;5045661;28;20518;-77
2022/03/31 09:15:32;;;;;;;14.13;10.37;;;;;;;3.75;100.00;94521.88;5024078;28;20474;-77
2022/03/31 09:17:59;;;;;;;15.30;11.40;;;;;;;3.22;100.00;94431.41;5014535;28;20816;-77
2022/03/31 09:20:37;;;;;;;12.37;10.13;;;;;;;3.82;100.00;94516.09;5034846;28;20449;-78
2022/03/31 09:23:04;;;;;;;15.00;9.83;;;;;;;3.74;100.00;94519.56;5017761;28;20534;-77
2022/03/31 09:25:32;;;;;;;11.47;9.40;;;;;;;3.45;100.00;94484.72;5030887;28;20448;-77
2022/03/31 09:28:01;;;;;;;12.83;9.80;;;;;;;3.46;100.00;94483.63;5011166;28;20929;-77
2022/03/31 09:30:27;;;;;;;13.70;11.07;;;;;;;3.63;100.00;94500.19;5029111;28;20445;-77
2022/03/31 09:32:54;;;;;;;12.63;11.07;;;;;;;3.80;100.00;94515.66;5031967;28;20450;-78
2022/03/31 09:35:23;;;;;;;11.43;8.47;;;;;;;3.55;100.00;94475.69;5015763;28;20464;-77
2022/03/31 09:37:55;;;;;;;13.80;9.77;;;;;;;3.35;100.00;94473.97;5010747;28;20494;-77
2022/03/31 09:40:22;;;;;;;13.83;9.73;;;;;;;3.51;100.00;94487.91;5025249;28;20511;-77
2022/03/31 09:42:59;;;;;;;9.87;8.00;;;;;;;3.72;100.00;94514.66;5011780;28;20432;-77
2022/03/31 09:45:41;;;;;;;10.73;7.80;;;;;;;3.75;100.00;94502.81;5010676;28;20486;-77
2022/03/31 09:48:24;;;;;;;9.90;8.40;;;;;;;3.70;100.00;94503.00;5014292;28;20448;-77
2022/03/31 09:50:51;;;;;;;9.50;7.53;;;;;;;3.88;100.00;94506.19;5022469;28;20786;-77
2022/03/31 09:53:18;;;;;;;8.80;7.37;;;;;;;3.78;100.00;94507.38;5036917;28;20816;-77
2022/03/31 09:55:47;;;;;;;11.00;9.00;;;;;;;3.83;100.00;94496.69;5017877;28;20462;-77
2022/03/31 09:58:19;;;;;;;8.90;8.00;;;;;;;3.86;100.00;94496.03;5020456;28;20514;-77
2022/03/31 10:00:47;;;;;;;9.67;7.87;;;;;;;3.64;100.00;94488.66;5035184;28;20859;-77
2022/03/31 10:03:17;;;;;;;9.97;7.47;;;;;;;3.63;100.00;94471.47;5021778;28;20424;-77
2022/03/31 10:05:46;;;;;;;9.50;7.90;;;;;;;3.69;100.00;94494.41;5017458;28;20518;-77
2022/03/31 10:08:14;;;;;;;8.27;7.00;;;;;;;3.59;100.00;94465.34;5035172;28;20457;-77
2022/03/31 10:10:40;;;;;;;9.77;8.63;;;;;;;3.93;100.00;94501.50;5034893;28;20450;-77
2022/03/31 10:13:35;;;;;;;13.10;8.73;;;;;;;4.05;100.00;94501.47;5020758;28;20430;-77
2022/03/31 10:16:13;;;;;;;9.87;8.20;;;;;;;4.07;100.00;94483.59;5023835;28;20464;-77
2022/03/31 10:18:40;;;;;;;8.67;7.80;;;;;;;3.89;100.00;94471.88;5050073;28;21376;-77
2022/03/31 10:21:07;;;;;;;9.40;8.07;;;;;;;4.27;100.00;94494.22;5038406;28;21034;-77
2022/03/31 10:26:25;;;;;;;8.77;7.80;;;;;;;4.19;100.00;94495.13;5018601;28;20483;-77
2022/03/31 10:29:00;;;;;;;11.20;8.20;;;;;;;4.15;100.00;94487.19;5046539;28;20438;-77
2022/03/31 10:31:39;;;;;;;9.00;8.10;;;;;;;4.34;100.00;94487.34;5036291;28;20408;-78
2022/03/31 10:34:07;;;;;;;9.53;7.83;;;;;;;4.25;100.00;94478.09;5030923;28;20953;-77
2022/03/31 10:36:38;;;;;;;10.80;8.03;;;;;;;4.07;100.00;94438.41;5026270;28;20439;-77
2022/03/31 10:39:08;;;;;;;9.80;7.63;;;;;;;4.17;100.00;94477.16;5029565;28;20987;-76
2022/03/31 10:41:38;;;;;;;8.77;7.87;;;;;;;3.93;100.00;94443.97;5014810;28;20445;-77
2022/03/31 10:44:14;;;;;;;7.13;5.60;;;;;;;4.06;100.00;94469.00;5033635;28;20961;-76
2022/03/31 10:46:43;;;;;;;6.83;6.20;;;;;;;4.15;100.00;94474.88;5045155;28;21058;-76
2022/03/31 10:49:13;;;;;;;7.77;6.43;;;;;;;3.91;100.00;94422.63;5034267;28;20436;-77
2022/03/31 10:51:41;;;;;;;13.33;7.70;;;;;;;4.21;100.00;94474.63;5034315;28;20455;-76
2022/03/31 10:54:12;;;;;;;7.10;6.40;;;;;;;3.90;100.00;94436.81;5033944;28;20491;-76
2022/03/31 10:56:40;;;;;;;6.40;5.73;;;;;;;4.30;100.00;94480.50;5066745;28;20468;-75
2022/03/31 10:59:07;;;;;;;6.77;5.97;;;;;;;4.04;100.00;94452.91;5016981;28;20505;-76
2022/03/31 11:01:39;;;;;;;6.77;6.10;;;;;;;3.95;100.00;94436.56;5049942;28;20453;-75
2022/03/31 11:04:08;;;;;;;7.30;4.97;;;;;;;4.09;100.00;94470.97;5033448;28;20829;-76
2022/03/31 11:06:45;;;;;;;5.70;5.20;;;;;;;4.27;100.00;94476.69;5015622;28;20537;-76
2022/03/31 11:09:23;;;;;;;6.10;5.50;;;;;;;3.78;100.00;94415.91;5032092;28;20431;-75
2022/03/31 11:11:55;;;;;;;5.63;4.90;;;;;;;3.75;100.00;94417.34;5010596;28;20440;-75
2022/03/31 11:14:23;;;;;;;5.57;4.47;;;;;;;3.92;100.00;94423.41;5033828;28;21015;-75
2022/03/31 11:16:50;;;;;;;5.20;4.30;;;;;;;4.20;100.00;94465.28;5034001;28;20464;-75
2022/03/31 11:19:19;;;;;;;6.13;5.13;;;;;;;3.82;100.00;94424.63;5031572;28;20558;-75
2022/03/31 11:21:47;;;;;;;6.03;4.50;;;;;;;4.05;100.00;94456.28;5013200;28;20455;-75
2022/03/31 11:24:22;;;;;;;4.60;4.20;;;;;;;4.03;100.00;94455.84;5032560;28;20463;-75
2022/03/31 11:26:49;;;;;;;7.10;5.70;;;;;;;4.10;100.00;94459.41;5050274;28;20536;-75
2022/03/31 11:29:21;;;;;;;6.30;4.33;;;;;;;4.04;100.00;94445.06;5033569;28;20440;-75